createdAt,value
2018-02-14T00:01:54.521Z,-0.40
2018-02-14T00:04:22.852Z,-0.30
2018-02-14T00:06:51.147Z,-0.30
2018-02-14T00:09:18.697Z,-0.40
2018-02-14T00:11:46.231Z,-0.40
2018-02-14T00:14:13.757Z,-0.30
2018-02-14T00:16:41.285Z,-0.30
2018-02-14T00:19:09.560Z,-0.30
2018-02-14T00:21:37.131Z,-0.40
2018-02-14T00:24:04.648Z,-0.30
2018-02-14T00:26:32.170Z,-0.40
2018-02-14T00:28:59.693Z,-0.40
2018-02-14T00:31:27.988Z,-0.50
2018-02-14T00:33:55.503Z,-0.50
2018-02-14T00:36:23.002Z,-0.50
2018-02-14T00:38:50.556Z,-0.50
2018-02-14T00:41:18.848Z,-0.50
2018-02-14T00:43:46.375Z,-0.50
2018-02-14T00:46:13.891Z,-0.40
2018-02-14T00:48:41.398Z,-0.40
2018-02-14T00:51:09.682Z,-0.30
2018-02-14T00:53:37.961Z,-0.30
2018-02-14T00:56:06.269Z,-0.30
2018-02-14T00:58:33.870Z,-0.40
2018-02-14T01:01:01.473Z,-0.30
2018-02-14T01:03:28.997Z,-0.20
2018-02-14T01:05:56.506Z,-0.10
2018-02-14T01:08:24.066Z,0.00
2018-02-14T01:10:51.571Z,0.10
2018-02-14T01:13:19.115Z,0.10
2018-02-14T01:15:46.615Z,0.10
2018-02-14T01:18:14.109Z,0.10
2018-02-14T01:20:44.528Z,0.10
2018-02-14T01:23:12.043Z,0.00
2018-02-14T01:25:39.534Z,0.10
2018-02-14T01:28:07.088Z,0.10
2018-02-14T01:30:34.605Z,0.10
2018-02-14T01:33:02.110Z,0.10
2018-02-14T01:35:29.620Z,0.10
2018-02-14T01:37:57.119Z,0.10
2018-02-14T01:40:25.389Z,0.00
2018-02-14T01:42:53.666Z,0.00
2018-02-14T01:45:21.951Z,-0.10
2018-02-14T01:47:50.299Z,0.00
2018-02-14T01:50:17.812Z,-0.10
2018-02-14T01:52:45.317Z,0.00
2018-02-14T01:55:12.859Z,0.00
2018-02-14T01:57:40.390Z,-0.10
2018-02-14T02:00:07.995Z,0.00
2018-02-14T02:02:35.499Z,-0.10
2018-02-14T02:05:03.035Z,-0.10
2018-02-14T02:07:31.305Z,-0.10
2018-02-14T02:09:59.604Z,-0.10
2018-02-14T02:12:27.125Z,-0.10
2018-02-14T02:14:55.640Z,-0.50
2018-02-14T02:17:23.178Z,-0.50
2018-02-14T02:19:50.703Z,-0.70
2018-02-14T02:22:18.209Z,-0.70
2018-02-14T02:24:46.485Z,-0.50
2018-02-14T02:27:14.003Z,-0.50
2018-02-14T02:29:41.535Z,-0.50
2018-02-14T02:32:09.094Z,-0.50
2018-02-14T02:34:36.647Z,-0.50
2018-02-14T02:37:04.140Z,-0.50
2018-02-14T02:39:43.407Z,-0.40
2018-02-14T02:42:10.933Z,-0.40
2018-02-14T02:44:39.183Z,-0.40
2018-02-14T02:47:06.711Z,-0.40
2018-02-14T02:49:35.012Z,-0.40
2018-02-14T02:52:02.511Z,-0.50
2018-02-14T02:54:30.024Z,-0.40
2018-02-14T02:56:57.560Z,-0.40
2018-02-14T02:59:25.843Z,-0.40
2018-02-14T03:01:53.364Z,-0.40
2018-02-14T03:04:20.931Z,-0.60
2018-02-14T03:06:48.421Z,-0.90
2018-02-14T03:09:15.932Z,-1.00
2018-02-14T03:11:43.439Z,-1.00
2018-02-14T03:14:11.707Z,-0.90
2018-02-14T03:16:39.211Z,-0.90
2018-02-14T03:19:06.719Z,-0.90
2018-02-14T03:21:34.231Z,-0.90
2018-02-14T03:24:01.850Z,-0.80
2018-02-14T03:26:30.119Z,-0.70
2018-02-14T03:28:57.628Z,-0.70
2018-02-14T03:31:25.180Z,-0.70
2018-02-14T03:33:52.722Z,-0.60
2018-02-14T03:36:20.253Z,-0.60
2018-02-14T03:38:47.754Z,-0.60
2018-02-14T03:41:15.265Z,-0.60
2018-02-14T03:43:42.787Z,-0.60
2018-02-14T03:46:10.334Z,-0.60
2018-02-14T03:48:37.843Z,-0.60
2018-02-14T03:51:05.364Z,-0.70
2018-02-14T03:53:32.870Z,-0.80
2018-02-14T03:56:00.392Z,-0.70
2018-02-14T03:58:27.898Z,-0.70
2018-02-14T04:00:55.417Z,-0.80
2018-02-14T04:03:22.951Z,-1.00
2018-02-14T04:05:50.453Z,-1.10
2018-02-14T04:08:17.967Z,-1.10
2018-02-14T04:10:45.490Z,-1.20
2018-02-14T04:13:13.754Z,-1.20
2018-02-14T04:15:41.270Z,-1.30
2018-02-14T04:18:08.823Z,-1.20
2018-02-14T04:20:36.351Z,-1.20
2018-02-14T04:23:04.622Z,-1.20
2018-02-14T04:25:32.925Z,-1.20
2018-02-14T04:28:00.866Z,-1.20
2018-02-14T04:30:28.390Z,-1.00
2018-02-14T04:32:56.068Z,-1.00
2018-02-14T04:35:23.586Z,-0.90
2018-02-14T04:37:51.147Z,-0.70
2018-02-14T04:40:18.678Z,-0.80
2018-02-14T04:42:46.961Z,-0.70
2018-02-14T04:45:15.247Z,-0.80
2018-02-14T04:47:42.755Z,-0.70
2018-02-14T04:50:10.263Z,-0.80
2018-02-14T04:52:37.846Z,-0.70
2018-02-14T04:55:05.354Z,-0.70
2018-02-14T04:57:32.992Z,-0.70
2018-02-14T05:00:00.507Z,-0.90
2018-02-14T05:02:28.026Z,-1.10
2018-02-14T05:04:55.532Z,-1.30
2018-02-14T05:07:23.067Z,-1.30
2018-02-14T05:09:51.348Z,-1.50
2018-02-14T05:12:19.003Z,-1.50
2018-02-14T05:14:47.370Z,-1.40
2018-02-14T05:17:14.900Z,-1.40
2018-02-14T05:19:42.640Z,-1.30
2018-02-14T05:22:10.157Z,-1.20
2018-02-14T05:24:37.661Z,-1.10
2018-02-14T05:27:05.184Z,-1.00
2018-02-14T05:29:32.686Z,-0.90
2018-02-14T05:32:00.194Z,-0.90
2018-02-14T05:34:27.752Z,-0.90
2018-02-14T05:36:55.270Z,-1.00
2018-02-14T05:39:22.821Z,-0.90
2018-02-14T05:41:50.351Z,-0.90
2018-02-14T05:44:17.869Z,-0.90
2018-02-14T05:46:45.390Z,-0.90
2018-02-14T05:49:13.169Z,-0.90
2018-02-14T05:51:40.703Z,-0.90
2018-02-14T05:54:08.402Z,-0.90
2018-02-14T05:56:35.955Z,-0.80
2018-02-14T05:59:03.573Z,-0.80
2018-02-14T06:01:31.103Z,-0.80
2018-02-14T06:03:58.638Z,-0.90
2018-02-14T06:06:26.162Z,-0.80
2018-02-14T06:08:53.662Z,-0.90
2018-02-14T06:11:21.177Z,-0.90
2018-02-14T06:13:49.478Z,-0.90
2018-02-14T06:16:17.014Z,-0.90
2018-02-14T06:18:44.555Z,-0.90
2018-02-14T06:21:12.082Z,-0.90
2018-02-14T06:23:39.624Z,-0.90
2018-02-14T06:26:07.136Z,-0.90
2018-02-14T06:28:35.412Z,-1.00
2018-02-14T06:31:03.038Z,-1.00
2018-02-14T06:33:30.535Z,-1.00
2018-02-14T06:35:58.847Z,-1.30
2018-02-14T06:38:26.460Z,-1.30
2018-02-14T06:40:54.280Z,-1.20
2018-02-14T06:43:21.915Z,-1.20
2018-02-14T06:45:49.428Z,-1.10
2018-02-14T06:48:16.921Z,-1.00
2018-02-14T06:50:45.225Z,-1.20
2018-02-14T06:53:12.757Z,-1.20
2018-02-14T06:55:40.301Z,-1.30
2018-02-14T06:58:07.841Z,-1.40
2018-02-14T07:00:35.370Z,-1.40
2018-02-14T07:03:02.929Z,-1.30
2018-02-14T07:05:30.461Z,-1.20
2018-02-14T07:07:59.295Z,-1.10
2018-02-14T07:10:26.877Z,-1.00
2018-02-14T07:12:54.487Z,-1.10
2018-02-14T07:15:22.029Z,-1.00
2018-02-14T07:17:50.303Z,-0.80
2018-02-14T07:20:18.649Z,-0.80
2018-02-14T07:22:46.203Z,-0.90
2018-02-14T07:25:13.853Z,-0.80
2018-02-14T07:27:41.522Z,-0.70
2018-02-14T07:30:09.025Z,-0.60
2018-02-14T07:32:36.584Z,-0.70
2018-02-14T07:35:04.135Z,-0.60
2018-02-14T07:37:31.642Z,-0.60
2018-02-14T07:39:59.434Z,-0.50
2018-02-14T07:42:26.942Z,-0.50
2018-02-14T07:44:55.215Z,-0.50
2018-02-14T07:47:23.632Z,-0.40
2018-02-14T07:49:51.148Z,-0.40
2018-02-14T07:52:19.481Z,-0.50
2018-02-14T07:54:46.977Z,-0.50
2018-02-14T07:57:14.602Z,-0.60
2018-02-14T07:59:42.149Z,-0.70
2018-02-14T08:02:09.682Z,-0.70
2018-02-14T08:04:37.235Z,-0.70
2018-02-14T08:07:04.745Z,-0.70
2018-02-14T08:09:32.264Z,-0.60
2018-02-14T08:11:59.842Z,-0.40
2018-02-14T08:14:27.349Z,-0.20
2018-02-14T08:16:54.871Z,-0.20
2018-02-14T08:19:22.392Z,-0.20
2018-02-14T08:21:49.926Z,-0.10
2018-02-14T08:24:17.542Z,0.00
2018-02-14T08:26:45.107Z,0.10
2018-02-14T08:29:12.626Z,0.20
2018-02-14T08:31:40.526Z,0.10
2018-02-14T08:34:08.031Z,0.00
2018-02-14T08:36:35.546Z,-0.10
2018-02-14T08:39:03.106Z,-0.10
2018-02-14T08:41:30.663Z,-0.10
2018-02-14T08:43:58.184Z,-0.10
2018-02-14T08:46:25.873Z,0.00
2018-02-14T08:48:53.599Z,0.00
2018-02-14T08:51:21.098Z,0.10
2018-02-14T08:53:48.616Z,0.20
2018-02-14T08:56:16.179Z,0.30
2018-02-14T08:58:44.513Z,0.50
2018-02-14T09:01:12.042Z,0.40
2018-02-14T09:03:40.365Z,0.60
2018-02-14T09:06:07.867Z,0.60
2018-02-14T09:08:35.387Z,0.60
2018-02-14T09:11:02.908Z,0.60
2018-02-14T09:13:30.414Z,0.70
2018-02-14T09:15:57.930Z,0.70
2018-02-14T09:18:25.521Z,0.80
2018-02-14T09:20:53.027Z,0.90
2018-02-14T09:23:21.355Z,1.00
2018-02-14T09:25:49.093Z,1.00
2018-02-14T09:28:16.597Z,1.10
2018-02-14T09:30:44.122Z,1.10
2018-02-14T09:33:11.790Z,1.20
2018-02-14T09:35:39.326Z,1.20
2018-02-14T09:38:06.842Z,1.30
2018-02-14T09:40:34.456Z,1.30
2018-02-14T09:43:01.975Z,1.50
2018-02-14T09:45:29.796Z,1.50
2018-02-14T09:47:57.390Z,1.60
2018-02-14T09:50:24.942Z,1.70
2018-02-14T09:52:52.477Z,1.80
2018-02-14T09:55:19.986Z,1.90
2018-02-14T09:57:47.511Z,1.90
2018-02-14T10:00:15.062Z,2.00
2018-02-14T10:02:42.567Z,2.20
2018-02-14T10:05:10.106Z,2.30
2018-02-14T10:07:38.467Z,2.30
2018-02-14T10:10:06.210Z,2.30
2018-02-14T10:12:33.817Z,2.40
2018-02-14T10:15:01.332Z,2.40
2018-02-14T10:17:28.932Z,2.50
2018-02-14T10:19:56.486Z,2.70
2018-02-14T10:22:23.999Z,2.90
2018-02-14T10:24:51.507Z,2.90
2018-02-14T10:27:19.054Z,3.00
2018-02-14T10:29:46.709Z,3.10
2018-02-14T10:32:14.226Z,3.50
2018-02-14T10:34:42.564Z,5.80
2018-02-14T10:37:10.098Z,5.80
2018-02-14T10:39:37.700Z,7.10
2018-02-14T10:42:05.236Z,8.00
2018-02-14T10:44:32.766Z,9.10
2018-02-14T10:47:00.293Z,10.00
2018-02-14T10:49:27.918Z,11.10
2018-02-14T10:51:55.449Z,12.00
2018-02-14T10:54:22.962Z,11.80
2018-02-14T10:56:50.489Z,12.60
2018-02-14T10:59:18.035Z,13.50
2018-02-14T11:01:51.266Z,14.30
2018-02-14T11:04:22.837Z,14.50
2018-02-14T11:06:50.437Z,14.40
2018-02-14T11:09:17.951Z,15.10
2018-02-14T11:11:45.500Z,14.60
2018-02-14T11:14:13.024Z,15.20
2018-02-14T11:16:40.649Z,16.00
2018-02-14T11:19:08.184Z,16.30
2018-02-14T11:21:35.749Z,16.80
2018-02-14T11:24:03.266Z,16.50
2018-02-14T11:26:30.797Z,16.60
2018-02-14T11:28:58.319Z,16.60
2018-02-14T11:31:25.844Z,17.00
2018-02-14T11:33:53.364Z,17.30
2018-02-14T11:36:20.929Z,17.90
2018-02-14T11:38:48.444Z,18.60
2018-02-14T11:41:15.998Z,19.50
2018-02-14T11:43:43.552Z,19.00
2018-02-14T11:46:11.074Z,19.40
2018-02-14T11:48:39.374Z,19.90
2018-02-14T11:51:06.945Z,19.80
2018-02-14T11:53:34.453Z,20.50
2018-02-14T11:56:02.788Z,21.00
2018-02-14T11:58:30.321Z,21.00
2018-02-14T12:00:57.827Z,21.70
2018-02-14T12:03:25.336Z,20.60
2018-02-14T12:05:53.441Z,20.70
2018-02-14T12:08:20.989Z,21.10
2018-02-14T12:10:48.676Z,21.10
2018-02-14T12:13:16.203Z,19.90
2018-02-14T12:15:43.707Z,19.00
2018-02-14T12:18:11.210Z,16.90
2018-02-14T12:20:38.759Z,15.60
2018-02-14T12:23:07.055Z,12.80
2018-02-14T12:25:34.581Z,12.70
2018-02-14T12:28:02.114Z,11.80
2018-02-14T12:30:29.635Z,11.80
2018-02-14T12:32:57.150Z,10.70
2018-02-14T12:35:24.680Z,10.30
2018-02-14T12:37:52.308Z,10.10
2018-02-14T12:40:19.814Z,9.60
2018-02-14T12:42:47.374Z,9.40
2018-02-14T12:45:14.933Z,9.40
2018-02-14T12:47:42.445Z,8.80
2018-02-14T12:50:09.946Z,8.80
2018-02-14T12:52:37.470Z,8.30
2018-02-14T12:55:04.999Z,8.10
2018-02-14T12:57:33.274Z,8.10
2018-02-14T13:00:01.544Z,8.10
2018-02-14T13:02:29.114Z,8.10
2018-02-14T13:04:56.629Z,8.00
2018-02-14T13:07:24.166Z,8.10
2018-02-14T13:09:51.690Z,8.00
2018-02-14T13:12:19.219Z,8.00
2018-02-14T13:14:46.765Z,8.10
2018-02-14T13:17:14.323Z,7.70
2018-02-14T13:19:41.858Z,7.20
2018-02-14T13:22:09.366Z,7.10
2018-02-14T13:24:36.880Z,7.30
2018-02-14T13:27:04.439Z,7.20
2018-02-14T13:29:31.938Z,6.80
2018-02-14T13:31:59.441Z,6.60
2018-02-14T13:34:26.949Z,6.60
2018-02-14T13:36:54.462Z,6.70
2018-02-14T13:39:22.007Z,6.60
2018-02-14T13:41:49.908Z,6.70
2018-02-14T13:44:17.419Z,6.60
2018-02-14T13:46:44.929Z,6.60
2018-02-14T13:49:12.426Z,6.60
2018-02-14T13:51:39.937Z,6.30
2018-02-14T13:54:07.450Z,6.20
2018-02-14T13:56:34.955Z,6.20
2018-02-14T13:59:02.477Z,6.30
2018-02-14T14:01:30.032Z,6.30
2018-02-14T14:03:57.566Z,6.30
2018-02-14T14:06:25.094Z,6.10
2018-02-14T14:08:52.636Z,6.00
2018-02-14T14:11:20.933Z,6.10
2018-02-14T14:13:48.463Z,6.10
2018-02-14T14:16:15.992Z,6.20
2018-02-14T14:18:43.511Z,6.10
2018-02-14T14:21:11.036Z,6.20
2018-02-14T14:23:39.295Z,6.50
2018-02-14T14:26:06.805Z,6.50
2018-02-14T14:28:34.310Z,6.50
2018-02-14T14:31:01.832Z,6.40
2018-02-14T14:33:29.359Z,6.40
2018-02-14T14:35:57.680Z,6.30
2018-02-14T14:38:25.184Z,6.40
2018-02-14T14:40:53.471Z,6.30
2018-02-14T14:43:21.840Z,6.20
2018-02-14T14:45:49.334Z,6.20
2018-02-14T14:48:16.936Z,6.20
2018-02-14T14:50:44.439Z,6.20
2018-02-14T14:53:11.959Z,6.30
2018-02-14T14:55:39.616Z,6.20
2018-02-14T14:58:07.118Z,6.10
2018-02-14T15:00:34.624Z,6.00
2018-02-14T15:03:02.230Z,5.90
2018-02-14T15:05:29.820Z,5.90
2018-02-14T15:07:57.379Z,5.90
2018-02-14T15:10:24.905Z,5.70
2018-02-14T15:12:53.181Z,5.70
2018-02-14T15:15:20.718Z,5.70
2018-02-14T15:17:48.247Z,5.60
2018-02-14T15:20:15.782Z,5.50
2018-02-14T15:22:43.300Z,5.50
2018-02-14T15:25:10.890Z,5.30
2018-02-14T15:27:39.194Z,5.20
2018-02-14T15:30:06.703Z,5.10
2018-02-14T15:32:34.249Z,5.10
2018-02-14T15:35:01.752Z,5.10
2018-02-14T15:37:29.265Z,5.10
2018-02-14T15:39:56.773Z,5.10
2018-02-14T15:42:24.325Z,5.10
2018-02-14T15:44:51.840Z,5.10
2018-02-14T15:47:19.428Z,5.10
2018-02-14T15:49:47.761Z,5.00
2018-02-14T15:52:15.301Z,5.00
2018-02-14T15:54:42.918Z,5.00
2018-02-14T15:57:10.458Z,4.90
2018-02-14T15:59:38.001Z,4.80
2018-02-14T16:02:05.620Z,4.90
2018-02-14T16:04:33.902Z,4.80
2018-02-14T16:07:01.411Z,4.80
2018-02-14T16:09:28.922Z,4.70
2018-02-14T16:11:57.266Z,4.50
2018-02-14T16:14:24.883Z,4.50
2018-02-14T16:16:52.653Z,4.60
2018-02-14T16:19:20.166Z,4.60
2018-02-14T16:21:47.726Z,4.50
2018-02-14T16:24:15.245Z,4.40
2018-02-14T16:26:42.776Z,4.30
2018-02-14T16:29:10.287Z,4.10
2018-02-14T16:31:37.884Z,4.00
2018-02-14T16:34:05.524Z,4.10
2018-02-14T16:36:33.039Z,4.00
2018-02-14T16:39:00.565Z,3.80
2018-02-14T16:41:28.165Z,3.70
2018-02-14T16:43:55.727Z,3.60
2018-02-14T16:46:23.272Z,3.60
2018-02-14T16:48:50.802Z,3.50
2018-02-14T16:51:18.360Z,3.40
2018-02-14T16:53:46.649Z,3.40
2018-02-14T16:56:14.170Z,3.40
2018-02-14T16:58:41.773Z,3.40
2018-02-14T17:01:09.312Z,3.40
2018-02-14T17:03:37.605Z,3.20
2018-02-14T17:06:05.205Z,3.20
2018-02-14T17:08:32.716Z,3.20
2018-02-14T17:11:01.081Z,3.00
2018-02-14T17:13:28.929Z,3.00
2018-02-14T17:15:56.445Z,3.00
2018-02-14T17:18:23.960Z,2.90
2018-02-14T17:20:51.529Z,2.80
2018-02-14T17:23:19.829Z,2.60
2018-02-14T17:25:47.445Z,2.60
2018-02-14T17:28:14.966Z,2.60
2018-02-14T17:30:42.527Z,2.50
2018-02-14T17:33:10.134Z,2.50
2018-02-14T17:35:37.698Z,2.50
2018-02-14T17:38:05.292Z,2.50
2018-02-14T17:40:32.803Z,2.60
2018-02-14T17:43:00.359Z,2.50
2018-02-14T17:45:27.897Z,2.40
2018-02-14T17:47:55.403Z,2.40
2018-02-14T17:50:22.891Z,2.50
2018-02-14T17:52:50.423Z,2.40
2018-02-14T17:55:19.457Z,2.30
2018-02-14T17:57:47.021Z,2.30
2018-02-14T18:00:14.539Z,2.30
2018-02-14T18:02:43.018Z,2.30
2018-02-14T18:05:10.534Z,2.20
2018-02-14T18:07:38.079Z,2.30
2018-02-14T18:10:05.724Z,2.20
2018-02-14T18:12:33.312Z,2.20
2018-02-14T18:15:01.043Z,2.10
2018-02-14T18:17:28.692Z,2.10
2018-02-14T18:19:57.809Z,1.90
2018-02-14T18:22:25.491Z,1.90
2018-02-14T18:24:53.057Z,1.90
2018-02-14T18:27:21.337Z,1.80
2018-02-14T18:29:48.981Z,1.70
2018-02-14T18:32:16.538Z,1.70
2018-02-14T18:34:44.039Z,1.60
2018-02-14T18:37:11.700Z,1.50
2018-02-14T18:39:39.210Z,1.40
2018-02-14T18:42:06.760Z,1.30
2018-02-14T18:44:34.268Z,1.30
2018-02-14T18:47:01.912Z,1.30
2018-02-14T18:49:29.506Z,1.20
2018-02-14T18:51:57.048Z,1.20
2018-02-14T18:54:27.220Z,1.20
2018-02-14T18:56:55.563Z,1.10
2018-02-14T18:59:23.106Z,1.10
2018-02-14T19:01:50.629Z,1.10
2018-02-14T19:04:18.935Z,0.80
2018-02-14T19:06:46.455Z,0.80
2018-02-14T19:09:13.970Z,0.80
2018-02-14T19:11:42.262Z,0.70
2018-02-14T19:14:09.800Z,0.60
2018-02-14T19:16:37.308Z,0.60
2018-02-14T19:19:04.845Z,0.50
2018-02-14T19:21:32.382Z,0.40
2018-02-14T19:23:59.934Z,0.40
2018-02-14T19:26:27.496Z,0.30
2018-02-14T19:28:55.025Z,0.30
2018-02-14T19:31:22.541Z,0.20
2018-02-14T19:33:50.050Z,0.20
2018-02-14T19:36:17.559Z,0.10
2018-02-14T19:38:45.084Z,0.10
2018-02-14T19:41:12.594Z,0.10
2018-02-14T19:43:40.913Z,0.10
2018-02-14T19:46:08.430Z,0.10
2018-02-14T19:48:35.957Z,0.10
2018-02-14T19:51:03.530Z,0.10
2018-02-14T19:53:31.066Z,0.00
2018-02-14T19:55:58.589Z,0.10
2018-02-14T19:58:26.954Z,0.00
2018-02-14T20:00:54.652Z,0.00
2018-02-14T20:03:22.198Z,0.00
2018-02-14T20:05:49.865Z,0.10
2018-02-14T20:08:17.417Z,0.20
2018-02-14T20:10:44.943Z,0.20
2018-02-14T20:13:12.466Z,0.10
2018-02-14T20:15:39.980Z,0.10
2018-02-14T20:18:08.331Z,0.30
2018-02-14T20:20:35.863Z,0.30
2018-02-14T20:23:03.411Z,0.30
2018-02-14T20:25:31.699Z,0.30
2018-02-14T20:28:01.153Z,0.30
2018-02-14T20:30:29.472Z,0.30
2018-02-14T20:32:57.008Z,0.30
2018-02-14T20:35:25.316Z,0.00
2018-02-14T20:37:52.840Z,0.00
2018-02-14T20:40:20.363Z,-0.10
2018-02-14T20:42:47.892Z,-0.10
2018-02-14T20:45:15.472Z,0.00
2018-02-14T20:47:43.037Z,-0.10
2018-02-14T20:50:10.557Z,0.00
2018-02-14T20:52:38.101Z,-0.10
2018-02-14T20:55:06.403Z,-0.10
2018-02-14T20:57:33.936Z,-0.10
2018-02-14T21:02:36.849Z,-0.10
2018-02-14T21:05:04.480Z,0.10
2018-02-14T21:07:32.056Z,0.10
2018-02-14T21:10:00.529Z,0.20
2018-02-14T21:12:28.956Z,0.30
2018-02-14T21:14:56.931Z,0.30
2018-02-14T21:17:24.519Z,0.30
2018-02-14T21:19:52.208Z,0.40
2018-02-14T21:22:19.934Z,0.40
2018-02-14T21:24:47.555Z,0.50
2018-02-14T21:27:15.185Z,0.40
2018-02-14T21:29:42.800Z,0.30
2018-02-14T21:32:10.449Z,0.40
2018-02-14T21:34:38.216Z,0.10
2018-02-14T21:37:05.976Z,0.10
2018-02-14T21:39:33.624Z,0.20
2018-02-14T21:42:01.217Z,0.20
2018-02-14T21:44:28.904Z,0.30
2018-02-14T21:46:56.554Z,0.30
2018-02-14T21:49:24.367Z,0.40
2018-02-14T21:51:53.856Z,0.20
2018-02-14T21:54:21.532Z,0.20
2018-02-14T21:56:49.987Z,0.20
2018-02-14T21:59:17.553Z,0.20
2018-02-14T22:01:45.251Z,0.20
2018-02-14T22:04:12.843Z,0.30
2018-02-14T22:06:40.625Z,0.20
2018-02-14T22:09:08.206Z,0.30
2018-02-14T22:11:35.786Z,0.30
2018-02-14T22:14:04.119Z,0.30
2018-02-14T22:16:31.716Z,0.30
2018-02-14T22:18:59.363Z,0.30
2018-02-14T22:21:26.928Z,0.30
2018-02-14T22:23:54.617Z,0.30
2018-02-14T22:26:22.366Z,0.30
2018-02-14T22:28:50.228Z,0.30
2018-02-14T22:31:17.856Z,0.50
2018-02-14T22:33:46.282Z,0.40
2018-02-14T22:36:14.048Z,0.50
2018-02-14T22:38:42.384Z,0.60
2018-02-14T22:41:09.948Z,0.60
2018-02-14T22:43:38.051Z,0.50
2018-02-14T22:46:05.909Z,0.50
2018-02-14T22:48:33.746Z,0.50
2018-02-14T22:51:01.435Z,0.50
2018-02-14T22:53:29.013Z,0.50
2018-02-14T22:55:57.554Z,0.40
2018-02-14T22:58:25.358Z,0.40
2018-02-14T23:00:52.952Z,0.40
2018-02-14T23:03:21.557Z,0.50
2018-02-14T23:05:49.140Z,0.50
2018-02-14T23:08:16.741Z,0.50
2018-02-14T23:10:45.081Z,0.40
2018-02-14T23:13:12.670Z,0.40
2018-02-14T23:15:40.387Z,0.50
2018-02-14T23:18:08.097Z,0.40
2018-02-14T23:20:35.712Z,0.30
2018-02-14T23:23:03.300Z,0.20
2018-02-14T23:25:30.854Z,0.20
2018-02-14T23:27:58.788Z,0.30
2018-02-14T23:30:26.465Z,0.20
2018-02-14T23:32:54.018Z,0.20
2018-02-14T23:35:21.596Z,0.10
2018-02-14T23:37:49.269Z,0.00
2018-02-14T23:40:17.789Z,0.10
2018-02-14T23:42:46.119Z,0.00
2018-02-14T23:45:14.006Z,0.00
2018-02-14T23:47:41.711Z,0.00
2018-02-14T23:50:09.346Z,0.00
2018-02-14T23:52:36.942Z,0.10
2018-02-14T23:55:04.520Z,0.10
2018-02-14T23:57:33.120Z,0.10
